createdAt,value
2023-02-09T00:01:57.341Z,-6.13
2023-02-09T00:04:43.774Z,-5.92
2023-02-09T00:07:30.407Z,-6.12
2023-02-09T00:10:17.259Z,-5.96
2023-02-09T00:13:22.025Z,-6.14
2023-02-09T00:16:08.333Z,-6.13
2023-02-09T00:18:57.122Z,-6.19
2023-02-09T00:21:44.293Z,-6.13
2023-02-09T00:24:30.633Z,-6.00
2023-02-09T00:27:16.912Z,-6.28
2023-02-09T00:30:03.640Z,-6.48
2023-02-09T00:32:50.234Z,-6.68
2023-02-09T00:35:40.586Z,-6.73
2023-02-09T00:38:26.798Z,-6.82
2023-02-09T00:41:13.866Z,-6.49
2023-02-09T00:44:00.515Z,-6.74
2023-02-09T00:46:48.917Z,-6.36
2023-02-09T00:49:35.461Z,-6.74
2023-02-09T00:52:22.089Z,-6.82
2023-02-09T00:55:08.670Z,-6.54
2023-02-09T00:57:55.330Z,-6.39
2023-02-09T01:00:42.439Z,-6.09
2023-02-09T01:03:28.880Z,-6.10
2023-02-09T01:06:15.532Z,-6.18
2023-02-09T01:09:02.260Z,-6.47
2023-02-09T01:11:48.655Z,-6.63
2023-02-09T01:14:34.986Z,-6.77
2023-02-09T01:17:21.280Z,-7.07
2023-02-09T01:20:10.141Z,-6.93
2023-02-09T01:22:56.478Z,-7.05
2023-02-09T01:25:42.604Z,-7.25
2023-02-09T01:28:30.227Z,-6.95
2023-02-09T01:31:31.880Z,-6.87
2023-02-09T01:34:18.629Z,-6.59
2023-02-09T01:37:08.541Z,-6.65
2023-02-09T01:39:55.017Z,-6.88
2023-02-09T01:42:41.404Z,-7.08
2023-02-09T01:45:45.412Z,-7.07
2023-02-09T01:48:31.748Z,-6.79
2023-02-09T01:51:19.076Z,-6.91
2023-02-09T01:54:14.660Z,-6.96
2023-02-09T01:57:07.011Z,-7.00
2023-02-09T01:59:58.655Z,-6.90
2023-02-09T02:02:55.594Z,-6.91
2023-02-09T02:05:46.144Z,-7.03
2023-02-09T02:08:36.425Z,-6.72
2023-02-09T02:11:24.131Z,-6.87
2023-02-09T02:14:29.754Z,-6.51
2023-02-09T02:17:42.449Z,-6.79
2023-02-09T02:21:00.112Z,-6.79
2023-02-09T02:24:15.770Z,-6.66
2023-02-09T02:27:05.135Z,-6.67
2023-02-09T02:30:05.995Z,-6.98
2023-02-09T02:33:07.201Z,-7.39
2023-02-09T02:36:00.204Z,-7.33
2023-02-09T02:39:00.417Z,-7.40
2023-02-09T02:42:14.720Z,-7.33
2023-02-09T02:45:13.583Z,-7.21
2023-02-09T02:48:15.289Z,-7.26
2023-02-09T02:51:07.800Z,-7.11
2023-02-09T02:53:57.870Z,-7.25
2023-02-09T02:56:49.916Z,-6.96
2023-02-09T02:59:46.193Z,-7.14
2023-02-09T03:02:38.545Z,-7.23
2023-02-09T03:05:27.391Z,-7.30
2023-02-09T03:08:14.234Z,-7.34
2023-02-09T03:11:00.299Z,-7.70
2023-02-09T03:13:52.880Z,-7.35
2023-02-09T03:16:58.229Z,-7.44
2023-02-09T03:20:10.721Z,-7.05
2023-02-09T03:23:12.824Z,-6.99
2023-02-09T03:26:06.219Z,-7.17
2023-02-09T03:28:56.385Z,-7.39
2023-02-09T03:31:43.605Z,-7.27
2023-02-09T03:34:30.150Z,-7.46
2023-02-09T03:37:17.605Z,-7.38
2023-02-09T03:40:04.354Z,-7.30
2023-02-09T03:42:50.937Z,-7.25
2023-02-09T03:45:37.801Z,-7.31
2023-02-09T03:48:24.432Z,-7.02
2023-02-09T03:51:10.874Z,-7.77
2023-02-09T03:53:58.003Z,-7.90
2023-02-09T03:56:44.405Z,-7.57
2023-02-09T03:59:30.773Z,-7.64
2023-02-09T04:02:17.005Z,-7.76
2023-02-09T04:05:05.720Z,-7.83
2023-02-09T04:07:52.483Z,-8.02
2023-02-09T04:10:38.988Z,-8.10
2023-02-09T04:13:26.114Z,-7.76
2023-02-09T04:16:12.607Z,-8.05
2023-02-09T04:18:59.012Z,-7.90
2023-02-09T04:21:45.475Z,-7.97
2023-02-09T04:24:31.942Z,-7.93
2023-02-09T04:27:18.118Z,-7.81
2023-02-09T04:30:04.614Z,-7.81
2023-02-09T04:32:51.931Z,-7.63
2023-02-09T04:35:38.211Z,-7.78
2023-02-09T04:38:25.869Z,-7.79
2023-02-09T04:41:12.464Z,-7.36
2023-02-09T04:43:58.690Z,-7.31
2023-02-09T04:46:45.801Z,-7.21
2023-02-09T04:49:32.461Z,-7.50
2023-02-09T04:52:19.019Z,-7.78
2023-02-09T04:55:05.782Z,-7.70
2023-02-09T04:58:10.809Z,-7.70
2023-02-09T05:00:57.834Z,-7.61
2023-02-09T05:03:44.203Z,-7.61
2023-02-09T05:06:30.665Z,-7.36
2023-02-09T05:09:17.009Z,-7.62
2023-02-09T05:12:03.413Z,-7.46
2023-02-09T05:14:49.781Z,-8.00
2023-02-09T05:17:36.185Z,-7.82
2023-02-09T05:20:22.818Z,-7.76
2023-02-09T05:23:09.800Z,-7.81
2023-02-09T05:25:56.558Z,-7.64
2023-02-09T05:28:43.074Z,-7.77
2023-02-09T05:31:29.941Z,-7.58
2023-02-09T05:34:16.512Z,-7.80
2023-02-09T05:37:03.373Z,-8.04
2023-02-09T05:39:51.335Z,-7.71
2023-02-09T05:42:37.569Z,-8.14
2023-02-09T05:45:23.931Z,-8.29
2023-02-09T05:48:10.214Z,-8.26
2023-02-09T05:50:56.360Z,-8.19
2023-02-09T05:53:43.020Z,-8.03
2023-02-09T05:56:30.056Z,-8.17
2023-02-09T05:59:16.193Z,-8.10
2023-02-09T06:02:02.793Z,-7.71
2023-02-09T06:04:49.268Z,-8.08
2023-02-09T06:07:35.970Z,-8.13
2023-02-09T06:10:22.523Z,-8.36
2023-02-09T06:13:08.836Z,-8.12
2023-02-09T06:15:55.108Z,-8.34
2023-02-09T06:18:41.769Z,-8.09
2023-02-09T06:21:28.300Z,-8.25
2023-02-09T06:24:15.521Z,-8.26
2023-02-09T06:27:02.131Z,-8.19
2023-02-09T06:29:48.377Z,-8.22
2023-02-09T06:32:34.733Z,-8.44
2023-02-09T06:35:21.019Z,-8.14
2023-02-09T06:38:07.377Z,-8.04
2023-02-09T06:40:53.691Z,-7.99
2023-02-09T06:43:39.992Z,-7.98
2023-02-09T06:46:26.205Z,-8.13
2023-02-09T06:49:13.014Z,-7.67
2023-02-09T06:51:59.867Z,-7.91
2023-02-09T06:54:46.565Z,-7.87
2023-02-09T06:57:33.069Z,-7.94
2023-02-09T07:00:19.585Z,-7.79
2023-02-09T07:03:06.233Z,-8.11
2023-02-09T07:05:52.729Z,-8.27
2023-02-09T07:08:40.737Z,-7.82
2023-02-09T07:11:27.255Z,-7.70
2023-02-09T07:14:13.416Z,-7.83
2023-02-09T07:17:00.006Z,-7.97
2023-02-09T07:19:46.429Z,-7.53
2023-02-09T07:22:33.589Z,-7.59
2023-02-09T07:25:19.970Z,-7.42
2023-02-09T07:28:06.470Z,-7.31
2023-02-09T07:30:53.096Z,-7.03
2023-02-09T07:33:39.777Z,-6.74
2023-02-09T07:36:26.222Z,-6.78
2023-02-09T07:39:12.537Z,-6.47
2023-02-09T07:41:59.241Z,-6.98
2023-02-09T07:45:00.028Z,-6.65
2023-02-09T07:47:46.625Z,-6.82
2023-02-09T07:50:33.151Z,-6.95
2023-02-09T07:53:19.921Z,-7.07
2023-02-09T07:56:06.426Z,-6.91
2023-02-09T07:58:54.201Z,-6.73
2023-02-09T08:01:40.403Z,-6.96
2023-02-09T08:04:26.995Z,-6.63
2023-02-09T08:07:13.666Z,-6.39
2023-02-09T08:10:00.230Z,-6.52
2023-02-09T08:13:03.491Z,-6.34
2023-02-09T08:15:55.937Z,-5.85
2023-02-09T08:18:50.760Z,-5.42
2023-02-09T08:21:39.567Z,-5.40
2023-02-09T08:24:25.726Z,-5.38
2023-02-09T08:27:12.299Z,-5.40
2023-02-09T08:29:59.521Z,-5.64
2023-02-09T08:32:45.773Z,-5.62
2023-02-09T08:35:32.270Z,-5.31
2023-02-09T08:38:19.824Z,-5.18
2023-02-09T08:41:08.275Z,-4.95
2023-02-09T08:43:54.548Z,-5.03
2023-02-09T08:46:41.386Z,-4.96
2023-02-09T08:49:28.123Z,-4.91
2023-02-09T08:52:15.596Z,-4.76
2023-02-09T08:55:01.984Z,-4.72
2023-02-09T08:57:48.275Z,-4.63
2023-02-09T09:00:34.872Z,-4.93
2023-02-09T09:03:21.157Z,-4.14
2023-02-09T09:06:10.476Z,-4.03
2023-02-09T09:08:56.755Z,-4.01
2023-02-09T09:11:43.148Z,-3.83
2023-02-09T09:14:30.053Z,-3.66
2023-02-09T09:17:17.004Z,-3.61
2023-02-09T09:20:04.330Z,-3.47
2023-02-09T09:22:50.596Z,-3.29
2023-02-09T09:25:39.202Z,-3.37
2023-02-09T09:28:25.495Z,-3.16
2023-02-09T09:31:16.468Z,-3.08
2023-02-09T09:34:03.192Z,-3.18
2023-02-09T09:36:49.813Z,-2.86
2023-02-09T09:39:36.052Z,-2.67
2023-02-09T09:42:44.753Z,-2.42
2023-02-09T09:45:35.072Z,-2.27
2023-02-09T09:48:26.939Z,-2.17
2023-02-09T09:51:20.340Z,-2.17
2023-02-09T09:54:20.266Z,-2.00
2023-02-09T09:57:28.691Z,-1.74
2023-02-09T10:00:33.624Z,-1.83
2023-02-09T10:03:23.178Z,-1.79
2023-02-09T10:06:21.737Z,-1.66
2023-02-09T10:09:21.933Z,-1.40
2023-02-09T10:12:15.768Z,-1.37
2023-02-09T10:15:31.904Z,-1.30
2023-02-09T10:18:25.185Z,-1.15
2023-02-09T10:21:14.427Z,-0.98
2023-02-09T10:24:00.546Z,-0.77
2023-02-09T10:27:07.607Z,-0.68
2023-02-09T10:29:54.775Z,-0.57
2023-02-09T10:32:43.876Z,-0.56
2023-02-09T10:35:43.333Z,-0.77
2023-02-09T10:38:33.492Z,-0.53
2023-02-09T10:41:22.321Z,-0.21
2023-02-09T10:44:22.272Z,-0.13
2023-02-09T10:47:27.265Z,0.02
2023-02-09T10:50:17.970Z,0.02
2023-02-09T10:53:21.648Z,0.04
2023-02-09T10:56:18.776Z,0.04
2023-02-09T10:59:17.919Z,0.19
2023-02-09T11:02:04.011Z,0.24
2023-02-09T11:04:50.583Z,0.20
2023-02-09T11:07:41.752Z,0.35
2023-02-09T11:10:29.975Z,0.68
2023-02-09T11:13:23.667Z,0.62
2023-02-09T11:16:25.840Z,0.79
2023-02-09T11:19:27.301Z,0.93
2023-02-09T11:22:16.860Z,1.15
2023-02-09T11:25:21.771Z,1.16
2023-02-09T11:28:40.105Z,1.31
2023-02-09T11:32:04.636Z,1.26
2023-02-09T11:35:03.194Z,1.19
2023-02-09T11:38:14.281Z,1.44
2023-02-09T11:41:24.351Z,1.39
2023-02-09T11:44:19.227Z,1.52
2023-02-09T11:47:10.824Z,1.61
2023-02-09T11:50:01.864Z,1.58
2023-02-09T11:52:53.936Z,1.32
2023-02-09T11:55:48.806Z,1.35
2023-02-09T11:58:46.897Z,1.64
2023-02-09T12:01:57.059Z,1.33
2023-02-09T12:05:00.519Z,1.65
2023-02-09T12:08:22.194Z,1.64
2023-02-09T12:11:14.246Z,1.96
2023-02-09T12:14:15.810Z,2.01
2023-02-09T12:17:19.067Z,1.94
2023-02-09T12:20:19.912Z,2.02
2023-02-09T12:23:24.538Z,2.11
2023-02-09T12:26:17.094Z,2.32
2023-02-09T12:29:38.114Z,2.35
2023-02-09T12:32:41.080Z,2.55
2023-02-09T12:35:38.476Z,2.47
2023-02-09T12:38:25.394Z,2.83
2023-02-09T12:41:15.239Z,2.82
2023-02-09T12:44:09.125Z,3.15
2023-02-09T12:46:57.858Z,3.25
2023-02-09T12:49:45.012Z,3.21
2023-02-09T12:52:31.388Z,3.32
2023-02-09T12:55:22.889Z,3.29
2023-02-09T12:58:51.216Z,3.62
2023-02-09T13:02:08.228Z,3.83
2023-02-09T13:05:22.863Z,3.83
2023-02-09T13:08:13.242Z,3.96
2023-02-09T13:11:20.174Z,3.96
2023-02-09T13:14:09.588Z,3.72
2023-02-09T13:16:59.019Z,3.93
2023-02-09T13:20:07.351Z,3.99
2023-02-09T13:23:40.035Z,4.19
2023-02-09T13:26:30.606Z,4.34
2023-02-09T13:29:22.105Z,4.45
2023-02-09T13:32:26.020Z,4.46
2023-02-09T13:35:23.421Z,4.39
2023-02-09T13:38:19.082Z,4.51
2023-02-09T13:41:07.500Z,4.54
2023-02-09T13:43:54.074Z,4.55
2023-02-09T13:46:40.335Z,4.60
2023-02-09T13:49:29.412Z,4.62
2023-02-09T13:52:20.958Z,4.51
2023-02-09T13:55:26.399Z,4.31
2023-02-09T13:58:30.226Z,4.05
2023-02-09T14:01:25.369Z,4.19
2023-02-09T14:04:14.490Z,4.18
2023-02-09T14:07:08.869Z,4.23
2023-02-09T14:10:06.688Z,4.00
2023-02-09T14:12:59.957Z,3.79
2023-02-09T14:16:08.405Z,3.98
2023-02-09T14:18:59.806Z,3.94
2023-02-09T14:21:46.617Z,3.86
2023-02-09T14:24:44.089Z,3.79
2023-02-09T14:27:39.150Z,3.50
2023-02-09T14:30:32.621Z,3.47
2023-02-09T14:33:28.673Z,3.34
2023-02-09T14:36:51.413Z,3.67
2023-02-09T14:40:01.291Z,3.73
2023-02-09T14:43:01.828Z,3.75
2023-02-09T14:45:57.443Z,3.69
2023-02-09T14:48:43.708Z,3.53
2023-02-09T14:51:30.245Z,3.49
2023-02-09T14:54:28.046Z,3.24
2023-02-09T14:57:14.877Z,3.37
2023-02-09T15:00:01.496Z,3.54
2023-02-09T15:02:50.109Z,3.52
2023-02-09T15:05:36.476Z,3.32
2023-02-09T15:08:26.782Z,3.26
2023-02-09T15:11:42.705Z,3.34
2023-02-09T15:14:29.131Z,3.32
2023-02-09T15:17:21.726Z,3.27
2023-02-09T15:20:08.615Z,2.91
2023-02-09T15:22:55.618Z,3.09
2023-02-09T15:25:42.272Z,3.12
2023-02-09T15:28:29.974Z,2.94
2023-02-09T15:31:16.710Z,2.95
2023-02-09T15:34:04.555Z,2.98
2023-02-09T15:36:50.912Z,3.28
2023-02-09T15:39:37.224Z,3.14
2023-02-09T15:42:42.272Z,2.99
2023-02-09T15:45:48.034Z,2.60
2023-02-09T15:48:34.136Z,2.50
2023-02-09T15:51:22.673Z,2.39
2023-02-09T15:54:17.876Z,2.21
2023-02-09T15:57:04.117Z,2.23
2023-02-09T15:59:51.640Z,1.80
2023-02-09T16:02:37.975Z,2.03
2023-02-09T16:05:27.149Z,1.94
2023-02-09T16:08:21.292Z,1.67
2023-02-09T16:11:16.470Z,1.51
2023-02-09T16:14:02.839Z,1.83
2023-02-09T16:16:49.677Z,1.89
2023-02-09T16:19:36.253Z,1.57
2023-02-09T16:22:25.065Z,1.37
2023-02-09T16:25:21.616Z,1.47
2023-02-09T16:28:12.284Z,1.17
2023-02-09T16:30:58.601Z,0.88
2023-02-09T16:33:45.057Z,0.97
2023-02-09T16:36:32.012Z,0.81
2023-02-09T16:39:20.688Z,0.42
2023-02-09T16:42:14.927Z,0.02
2023-02-09T16:45:01.899Z,-0.63
2023-02-09T16:47:51.449Z,-0.31
2023-02-09T16:50:42.046Z,-0.65
2023-02-09T16:53:32.693Z,-1.33
2023-02-09T16:56:20.188Z,-1.27
2023-02-09T16:59:06.402Z,-1.28
2023-02-09T17:01:52.894Z,-1.65
2023-02-09T17:04:40.196Z,-1.56
2023-02-09T17:07:45.452Z,-1.63
2023-02-09T17:10:39.783Z,-1.93
2023-02-09T17:13:26.220Z,-1.89
2023-02-09T17:16:33.471Z,-2.06
2023-02-09T17:19:20.467Z,-2.01
2023-02-09T17:22:11.588Z,-2.16
2023-02-09T17:24:58.069Z,-2.12
2023-02-09T17:27:45.199Z,-2.39
2023-02-09T17:30:33.568Z,-2.44
2023-02-09T17:33:25.793Z,-2.29
2023-02-09T17:36:29.084Z,-2.39
2023-02-09T17:39:18.647Z,-2.47
2023-02-09T17:42:05.108Z,-2.56
2023-02-09T17:44:51.414Z,-2.56
2023-02-09T17:47:39.409Z,-2.61
2023-02-09T17:50:26.136Z,-2.65
2023-02-09T17:53:16.234Z,-2.72
2023-02-09T17:56:02.770Z,-3.01
2023-02-09T17:58:49.038Z,-3.00
2023-02-09T18:01:40.018Z,-2.90
2023-02-09T18:04:28.538Z,-2.81
2023-02-09T18:07:20.252Z,-2.98
2023-02-09T18:10:07.350Z,-3.05
2023-02-09T18:12:56.424Z,-3.04
2023-02-09T18:15:44.662Z,-3.01
2023-02-09T18:18:31.048Z,-3.21
2023-02-09T18:21:17.460Z,-3.40
2023-02-09T18:24:04.157Z,-3.36
2023-02-09T18:26:51.029Z,-3.42
2023-02-09T18:29:37.633Z,-3.34
2023-02-09T18:32:24.076Z,-3.47
2023-02-09T18:35:23.121Z,-3.45
2023-02-09T18:38:11.947Z,-3.49
2023-02-09T18:40:58.370Z,-3.69
2023-02-09T18:43:44.690Z,-3.58
2023-02-09T18:46:31.070Z,-3.80
2023-02-09T18:49:17.533Z,-3.91
2023-02-09T18:52:04.984Z,-3.75
2023-02-09T18:54:51.897Z,-4.03
2023-02-09T18:57:38.211Z,-3.93
2023-02-09T19:00:25.530Z,-3.76
2023-02-09T19:03:13.688Z,-3.76
2023-02-09T19:05:59.966Z,-4.18
2023-02-09T19:08:46.640Z,-3.89
2023-02-09T19:11:33.096Z,-4.07
2023-02-09T19:14:37.652Z,-4.65
2023-02-09T19:17:23.644Z,-4.27
2023-02-09T19:20:16.986Z,-4.18
2023-02-09T19:23:03.892Z,-4.18
2023-02-09T19:26:00.754Z,-4.12
2023-02-09T19:28:48.157Z,-4.35
2023-02-09T19:31:34.437Z,-4.41
2023-02-09T19:34:20.700Z,-4.39
2023-02-09T19:37:08.020Z,-4.47
2023-02-09T19:40:00.452Z,-4.37
2023-02-09T19:42:48.336Z,-4.54
2023-02-09T19:45:37.803Z,-4.76
2023-02-09T19:48:24.327Z,-4.52
2023-02-09T19:51:10.600Z,-4.58
2023-02-09T19:53:56.954Z,-4.61
2023-02-09T19:56:45.159Z,-4.73
2023-02-09T19:59:32.407Z,-4.68
2023-02-09T20:02:18.670Z,-4.51
2023-02-09T20:05:05.300Z,-4.41
2023-02-09T20:07:53.652Z,-4.56
2023-02-09T20:10:40.575Z,-4.78
2023-02-09T20:13:27.282Z,-4.66
2023-02-09T20:16:18.487Z,-4.62
2023-02-09T20:19:04.913Z,-4.65
2023-02-09T20:21:51.404Z,-4.66
2023-02-09T20:24:37.705Z,-4.77
2023-02-09T20:27:23.988Z,-4.82
2023-02-09T20:30:10.840Z,-4.81
2023-02-09T20:32:57.054Z,-4.42
2023-02-09T20:35:45.433Z,-4.28
2023-02-09T20:38:32.824Z,-4.54
2023-02-09T20:41:19.031Z,-4.89
2023-02-09T20:44:23.855Z,-4.88
2023-02-09T20:47:10.247Z,-4.34
2023-02-09T20:49:59.610Z,-4.64
2023-02-09T20:52:46.493Z,-4.67
2023-02-09T20:55:32.748Z,-4.88
2023-02-09T20:58:19.296Z,-4.94
2023-02-09T21:01:06.115Z,-5.07
2023-02-09T21:03:57.317Z,-4.93
2023-02-09T21:06:44.477Z,-5.07
2023-02-09T21:09:30.637Z,-5.01
2023-02-09T21:12:17.033Z,-5.23
2023-02-09T21:15:03.645Z,-5.30
2023-02-09T21:17:51.658Z,-5.15
2023-02-09T21:20:38.515Z,-5.24
2023-02-09T21:23:24.733Z,-5.54
2023-02-09T21:26:14.602Z,-5.50
2023-02-09T21:29:01.029Z,-5.21
2023-02-09T21:31:47.645Z,-5.35
2023-02-09T21:34:34.198Z,-5.57
2023-02-09T21:37:22.837Z,-5.35
2023-02-09T21:40:11.280Z,-5.23
2023-02-09T21:42:57.580Z,-5.50
2023-02-09T21:45:44.128Z,-5.29
2023-02-09T21:48:30.374Z,-5.27
2023-02-09T21:51:16.954Z,-5.24
2023-02-09T21:54:03.367Z,-4.87
2023-02-09T21:56:49.736Z,-4.89
2023-02-09T21:59:36.225Z,-5.03
2023-02-09T22:02:22.721Z,-5.11
2023-02-09T22:05:09.772Z,-5.40
2023-02-09T22:07:56.124Z,-5.21
2023-02-09T22:10:42.507Z,-5.07
2023-02-09T22:13:30.551Z,-4.81
2023-02-09T22:16:19.780Z,-4.77
2023-02-09T22:19:06.394Z,-5.18
2023-02-09T22:21:52.736Z,-4.86
2023-02-09T22:24:39.221Z,-4.84
2023-02-09T22:27:26.454Z,-5.04
2023-02-09T22:30:12.951Z,-5.19
2023-02-09T22:32:59.345Z,-5.32
2023-02-09T22:35:45.817Z,-5.55
2023-02-09T22:38:33.141Z,-5.48
2023-02-09T22:41:22.086Z,-5.47
2023-02-09T22:44:11.766Z,-5.80
2023-02-09T22:46:58.326Z,-5.65
2023-02-09T22:49:46.666Z,-5.74
2023-02-09T22:52:33.319Z,-5.83
2023-02-09T22:55:19.690Z,-5.75
2023-02-09T22:58:06.030Z,-5.75
2023-02-09T23:00:54.890Z,-5.70
2023-02-09T23:03:41.324Z,-5.84
2023-02-09T23:06:29.968Z,-5.80
2023-02-09T23:09:16.756Z,-5.85
2023-02-09T23:12:03.475Z,-5.86
2023-02-09T23:14:49.703Z,-5.73
2023-02-09T23:17:36.154Z,-6.09
2023-02-09T23:20:22.342Z,-5.93
2023-02-09T23:23:11.292Z,-5.96
2023-02-09T23:25:58.032Z,-5.89
2023-02-09T23:28:45.194Z,-6.06
2023-02-09T23:31:31.977Z,-6.01
2023-02-09T23:34:21.627Z,-6.02
2023-02-09T23:37:18.145Z,-6.29
2023-02-09T23:40:10.524Z,-6.06
2023-02-09T23:42:56.859Z,-6.11
2023-02-09T23:45:43.206Z,-6.13
2023-02-09T23:48:29.856Z,-5.99
2023-02-09T23:51:22.118Z,-5.93
2023-02-09T23:54:10.315Z,-6.02
2023-02-09T23:56:56.934Z,-5.89
2023-02-09T23:59:43.427Z,-5.97
